sensor_id;sensor_type;location;lat;lon;timestamp;P1;durP1;ratioP1;P2;durP2;ratioP2
11887;SDS011;6003;42.756;23.130;2022-08-25T00:00:39;3.63;;;2.80;;
11887;SDS011;6003;42.756;23.130;2022-08-25T00:03:08;5.20;;;3.10;;
11887;SDS011;6003;42.756;23.130;2022-08-25T00:05:47;3.17;;;2.87;;
11887;SDS011;6003;42.756;23.130;2022-08-25T00:08:19;5.23;;;2.80;;
11887;SDS011;6003;42.756;23.130;2022-08-25T00:10:49;4.23;;;3.80;;
11887;SDS011;6003;42.756;23.130;2022-08-25T00:13:16;6.90;;;3.17;;
11887;SDS011;6003;42.756;23.130;2022-08-25T00:15:57;3.13;;;2.87;;
11887;SDS011;6003;42.756;23.130;2022-08-25T00:18:38;3.03;;;2.73;;
11887;SDS011;6003;42.756;23.130;2022-08-25T00:21:07;3.30;;;3.10;;
11887;SDS011;6003;42.756;23.130;2022-08-25T00:23:35;4.63;;;2.53;;
11887;SDS011;6003;42.756;23.130;2022-08-25T00:26:07;5.30;;;2.80;;
11887;SDS011;6003;42.756;23.130;2022-08-25T00:28:37;3.03;;;2.80;;
11887;SDS011;6003;42.756;23.130;2022-08-25T00:31:05;4.30;;;2.63;;
11887;SDS011;6003;42.756;23.130;2022-08-25T00:33:46;3.13;;;2.87;;
11887;SDS011;6003;42.756;23.130;2022-08-25T00:36:17;2.90;;;2.67;;
11887;SDS011;6003;42.756;23.130;2022-08-25T00:38:49;4.50;;;2.83;;
11887;SDS011;6003;42.756;23.130;2022-08-25T00:41:17;2.97;;;2.77;;
11887;SDS011;6003;42.756;23.130;2022-08-25T00:43:50;3.90;;;2.83;;
11887;SDS011;6003;42.756;23.130;2022-08-25T00:46:21;3.07;;;2.83;;
11887;SDS011;6003;42.756;23.130;2022-08-25T00:49:05;4.13;;;3.30;;
11887;SDS011;6003;42.756;23.130;2022-08-25T00:51:38;3.40;;;3.10;;
11887;SDS011;6003;42.756;23.130;2022-08-25T00:57:33;2.40;;;2.30;;
11887;SDS011;6003;42.756;23.130;2022-08-25T01:00:14;3.77;;;3.30;;
11887;SDS011;6003;42.756;23.130;2022-08-25T01:02:44;4.67;;;2.57;;
11887;SDS011;6003;42.756;23.130;2022-08-25T01:05:25;4.63;;;2.80;;
11887;SDS011;6003;42.756;23.130;2022-08-25T01:07:59;3.13;;;2.93;;
11887;SDS011;6003;42.756;23.130;2022-08-25T01:10:50;3.77;;;3.07;;
11887;SDS011;6003;42.756;23.130;2022-08-25T01:13:20;3.30;;;3.10;;
11887;SDS011;6003;42.756;23.130;2022-08-25T01:16:02;3.10;;;2.80;;
11887;SDS011;6003;42.756;23.130;2022-08-25T01:18:43;4.60;;;3.10;;
11887;SDS011;6003;42.756;23.130;2022-08-25T01:21:19;4.77;;;3.43;;
11887;SDS011;6003;42.756;23.130;2022-08-25T01:23:51;3.53;;;3.13;;
11887;SDS011;6003;42.756;23.130;2022-08-25T01:26:32;3.40;;;3.10;;
11887;SDS011;6003;42.756;23.130;2022-08-25T01:29:09;3.30;;;3.00;;
11887;SDS011;6003;42.756;23.130;2022-08-25T01:32:40;3.50;;;3.30;;
11887;SDS011;6003;42.756;23.130;2022-08-25T01:38:06;5.00;;;3.53;;
11887;SDS011;6003;42.756;23.130;2022-08-25T01:40:45;4.20;;;3.10;;
11887;SDS011;6003;42.756;23.130;2022-08-25T01:46:32;4.30;;;2.83;;
11887;SDS011;6003;42.756;23.130;2022-08-25T01:49:08;4.13;;;3.60;;
11887;SDS011;6003;42.756;23.130;2022-08-25T01:51:41;3.90;;;3.60;;
11887;SDS011;6003;42.756;23.130;2022-08-25T01:54:25;4.93;;;3.53;;
11887;SDS011;6003;42.756;23.130;2022-08-25T01:56:58;4.67;;;3.10;;
11887;SDS011;6003;42.756;23.130;2022-08-25T01:59:32;3.63;;;3.33;;
11887;SDS011;6003;42.756;23.130;2022-08-25T02:02:02;6.00;;;3.60;;
11887;SDS011;6003;42.756;23.130;2022-08-25T02:04:30;3.67;;;3.00;;
11887;SDS011;6003;42.756;23.130;2022-08-25T02:06:57;3.83;;;3.43;;
11887;SDS011;6003;42.756;23.130;2022-08-25T02:09:39;3.83;;;3.40;;
11887;SDS011;6003;42.756;23.130;2022-08-25T02:12:28;3.90;;;3.60;;
11887;SDS011;6003;42.756;23.130;2022-08-25T02:14:57;4.33;;;3.90;;
11887;SDS011;6003;42.756;23.130;2022-08-25T02:20:55;3.40;;;3.10;;
11887;SDS011;6003;42.756;23.130;2022-08-25T02:23:56;5.10;;;3.07;;
11887;SDS011;6003;42.756;23.130;2022-08-25T02:26:28;7.00;;;3.30;;
11887;SDS011;6003;42.756;23.130;2022-08-25T02:29:04;5.23;;;3.40;;
11887;SDS011;6003;42.756;23.130;2022-08-25T02:31:36;3.70;;;3.00;;
11887;SDS011;6003;42.756;23.130;2022-08-25T02:34:23;7.80;;;3.40;;
11887;SDS011;6003;42.756;23.130;2022-08-25T02:36:50;4.13;;;3.83;;
11887;SDS011;6003;42.756;23.130;2022-08-25T02:39:30;3.97;;;3.67;;
11887;SDS011;6003;42.756;23.130;2022-08-25T02:41:58;4.30;;;3.67;;
11887;SDS011;6003;42.756;23.130;2022-08-25T02:44:25;3.33;;;3.13;;
11887;SDS011;6003;42.756;23.130;2022-08-25T02:46:53;4.30;;;2.60;;
11887;SDS011;6003;42.756;23.130;2022-08-25T02:49:33;6.70;;;3.60;;
11887;SDS011;6003;42.756;23.130;2022-08-25T02:52:01;3.70;;;3.40;;
11887;SDS011;6003;42.756;23.130;2022-08-25T02:54:29;3.30;;;3.00;;
11887;SDS011;6003;42.756;23.130;2022-08-25T02:56:57;6.37;;;3.00;;
11887;SDS011;6003;42.756;23.130;2022-08-25T02:59:28;3.87;;;3.57;;
11887;SDS011;6003;42.756;23.130;2022-08-25T03:01:55;5.13;;;3.10;;
11887;SDS011;6003;42.756;23.130;2022-08-25T03:04:25;3.30;;;3.00;;
11887;SDS011;6003;42.756;23.130;2022-08-25T03:06:53;4.03;;;3.63;;
11887;SDS011;6003;42.756;23.130;2022-08-25T03:09:20;3.50;;;3.20;;
11887;SDS011;6003;42.756;23.130;2022-08-25T03:11:47;4.57;;;3.43;;
11887;SDS011;6003;42.756;23.130;2022-08-25T03:14:16;6.27;;;3.17;;
11887;SDS011;6003;42.756;23.130;2022-08-25T03:16:46;3.40;;;3.10;;
11887;SDS011;6003;42.756;23.130;2022-08-25T03:19:16;3.70;;;3.37;;
11887;SDS011;6003;42.756;23.130;2022-08-25T03:21:43;3.30;;;3.00;;
11887;SDS011;6003;42.756;23.130;2022-08-25T03:24:11;3.67;;;3.37;;
11887;SDS011;6003;42.756;23.130;2022-08-25T03:26:44;3.63;;;3.33;;
11887;SDS011;6003;42.756;23.130;2022-08-25T03:29:27;4.47;;;3.07;;
11887;SDS011;6003;42.756;23.130;2022-08-25T03:31:56;4.43;;;4.03;;
11887;SDS011;6003;42.756;23.130;2022-08-25T03:34:27;5.27;;;3.50;;
11887;SDS011;6003;42.756;23.130;2022-08-25T03:37:01;4.33;;;3.93;;
11887;SDS011;6003;42.756;23.130;2022-08-25T03:39:32;3.27;;;3.00;;
11887;SDS011;6003;42.756;23.130;2022-08-25T03:45:02;5.63;;;3.50;;
11887;SDS011;6003;42.756;23.130;2022-08-25T03:47:37;4.20;;;3.80;;
11887;SDS011;6003;42.756;23.130;2022-08-25T03:50:08;4.10;;;3.43;;
11887;SDS011;6003;42.756;23.130;2022-08-25T03:52:42;4.33;;;3.73;;
11887;SDS011;6003;42.756;23.130;2022-08-25T03:55:30;3.47;;;3.20;;
11887;SDS011;6003;42.756;23.130;2022-08-25T03:58:00;4.10;;;3.80;;
11887;SDS011;6003;42.756;23.130;2022-08-25T04:00:32;4.40;;;3.90;;
11887;SDS011;6003;42.756;23.130;2022-08-25T04:03:05;3.70;;;3.40;;
11887;SDS011;6003;42.756;23.130;2022-08-25T04:05:43;3.90;;;3.40;;
11887;SDS011;6003;42.756;23.130;2022-08-25T04:08:10;3.60;;;3.40;;
11887;SDS011;6003;42.756;23.130;2022-08-25T04:10:40;4.37;;;3.77;;
11887;SDS011;6003;42.756;23.130;2022-08-25T04:13:10;3.97;;;3.67;;
11887;SDS011;6003;42.756;23.130;2022-08-25T04:15:42;4.37;;;4.00;;
11887;SDS011;6003;42.756;23.130;2022-08-25T04:18:24;3.60;;;3.30;;
11887;SDS011;6003;42.756;23.130;2022-08-25T04:21:00;3.90;;;3.60;;
11887;SDS011;6003;42.756;23.130;2022-08-25T04:35:14;3.90;;;3.60;;
11887;SDS011;6003;42.756;23.130;2022-08-25T04:38:11;3.10;;;2.90;;
11887;SDS011;6003;42.756;23.130;2022-08-25T04:40:56;5.50;;;3.40;;
11887;SDS011;6003;42.756;23.130;2022-08-25T04:43:23;3.00;;;2.80;;
11887;SDS011;6003;42.756;23.130;2022-08-25T04:45:50;3.40;;;3.10;;
11887;SDS011;6003;42.756;23.130;2022-08-25T04:48:17;3.17;;;2.90;;
11887;SDS011;6003;42.756;23.130;2022-08-25T04:50:46;3.50;;;3.30;;
11887;SDS011;6003;42.756;23.130;2022-08-25T04:53:13;3.80;;;3.53;;
11887;SDS011;6003;42.756;23.130;2022-08-25T04:55:40;3.70;;;3.00;;
11887;SDS011;6003;42.756;23.130;2022-08-25T04:58:20;3.60;;;3.03;;
11887;SDS011;6003;42.756;23.130;2022-08-25T05:00:47;3.20;;;3.00;;
11887;SDS011;6003;42.756;23.130;2022-08-25T05:03:14;2.93;;;2.73;;
11887;SDS011;6003;42.756;23.130;2022-08-25T05:05:41;3.27;;;2.87;;
11887;SDS011;6003;42.756;23.130;2022-08-25T05:08:09;3.70;;;3.47;;
11887;SDS011;6003;42.756;23.130;2022-08-25T05:10:38;3.87;;;3.43;;
11887;SDS011;6003;42.756;23.130;2022-08-25T05:13:07;5.97;;;3.40;;
11887;SDS011;6003;42.756;23.130;2022-08-25T05:15:34;4.43;;;3.40;;
11887;SDS011;6003;42.756;23.130;2022-08-25T05:18:16;3.00;;;2.80;;
11887;SDS011;6003;42.756;23.130;2022-08-25T05:20:45;3.47;;;3.17;;
11887;SDS011;6003;42.756;23.130;2022-08-25T05:23:13;3.93;;;3.53;;
11887;SDS011;6003;42.756;23.130;2022-08-25T05:25:41;3.30;;;3.10;;
11887;SDS011;6003;42.756;23.130;2022-08-25T05:28:08;3.60;;;3.13;;
11887;SDS011;6003;42.756;23.130;2022-08-25T05:30:36;3.63;;;3.33;;
11887;SDS011;6003;42.756;23.130;2022-08-25T05:33:03;3.67;;;3.13;;
11887;SDS011;6003;42.756;23.130;2022-08-25T05:35:30;4.60;;;3.73;;
11887;SDS011;6003;42.756;23.130;2022-08-25T05:37:58;5.07;;;3.50;;
11887;SDS011;6003;42.756;23.130;2022-08-25T05:40:26;4.43;;;3.63;;
11887;SDS011;6003;42.756;23.130;2022-08-25T05:42:53;3.60;;;3.30;;
11887;SDS011;6003;42.756;23.130;2022-08-25T05:45:20;4.67;;;3.40;;
11887;SDS011;6003;42.756;23.130;2022-08-25T05:47:47;3.30;;;3.00;;
11887;SDS011;6003;42.756;23.130;2022-08-25T05:50:15;3.63;;;3.30;;
11887;SDS011;6003;42.756;23.130;2022-08-25T05:52:42;4.37;;;3.60;;
11887;SDS011;6003;42.756;23.130;2022-08-25T05:55:10;3.17;;;2.97;;
11887;SDS011;6003;42.756;23.130;2022-08-25T05:57:41;3.10;;;2.90;;
11887;SDS011;6003;42.756;23.130;2022-08-25T06:00:08;3.73;;;3.30;;
11887;SDS011;6003;42.756;23.130;2022-08-25T06:02:36;3.10;;;2.80;;
11887;SDS011;6003;42.756;23.130;2022-08-25T06:05:05;3.40;;;3.13;;
11887;SDS011;6003;42.756;23.130;2022-08-25T06:07:33;3.20;;;3.00;;
11887;SDS011;6003;42.756;23.130;2022-08-25T06:10:00;4.60;;;2.80;;
11887;SDS011;6003;42.756;23.130;2022-08-25T06:12:28;3.40;;;3.10;;
11887;SDS011;6003;42.756;23.130;2022-08-25T06:14:58;4.33;;;3.23;;
11887;SDS011;6003;42.756;23.130;2022-08-25T06:17:25;3.10;;;2.90;;
11887;SDS011;6003;42.756;23.130;2022-08-25T06:19:52;3.13;;;2.93;;
11887;SDS011;6003;42.756;23.130;2022-08-25T06:22:20;3.27;;;2.97;;
11887;SDS011;6003;42.756;23.130;2022-08-25T06:24:47;3.70;;;3.40;;
11887;SDS011;6003;42.756;23.130;2022-08-25T06:27:14;4.10;;;2.70;;
11887;SDS011;6003;42.756;23.130;2022-08-25T06:29:40;3.17;;;2.97;;
11887;SDS011;6003;42.756;23.130;2022-08-25T06:32:09;3.07;;;2.83;;
11887;SDS011;6003;42.756;23.130;2022-08-25T06:34:36;4.43;;;3.23;;
11887;SDS011;6003;42.756;23.130;2022-08-25T06:37:03;3.20;;;3.00;;
11887;SDS011;6003;42.756;23.130;2022-08-25T06:39:30;3.33;;;3.03;;
11887;SDS011;6003;42.756;23.130;2022-08-25T06:41:58;3.50;;;3.20;;
11887;SDS011;6003;42.756;23.130;2022-08-25T06:44:25;3.73;;;2.73;;
11887;SDS011;6003;42.756;23.130;2022-08-25T06:46:52;3.20;;;2.63;;
11887;SDS011;6003;42.756;23.130;2022-08-25T06:49:21;4.63;;;3.13;;
11887;SDS011;6003;42.756;23.130;2022-08-25T06:51:51;3.00;;;2.73;;
11887;SDS011;6003;42.756;23.130;2022-08-25T06:54:19;3.70;;;2.67;;
11887;SDS011;6003;42.756;23.130;2022-08-25T06:56:46;4.80;;;2.93;;
11887;SDS011;6003;42.756;23.130;2022-08-25T06:59:13;3.77;;;3.37;;
11887;SDS011;6003;42.756;23.130;2022-08-25T07:01:41;3.57;;;3.27;;
11887;SDS011;6003;42.756;23.130;2022-08-25T07:04:09;3.47;;;3.10;;
11887;SDS011;6003;42.756;23.130;2022-08-25T07:06:38;3.95;;;3.30;;
11887;SDS011;6003;42.756;23.130;2022-08-25T07:09:06;2.67;;;2.47;;
11887;SDS011;6003;42.756;23.130;2022-08-25T07:11:34;2.87;;;2.67;;
11887;SDS011;6003;42.756;23.130;2022-08-25T07:14:01;4.87;;;2.47;;
11887;SDS011;6003;42.756;23.130;2022-08-25T07:16:30;3.10;;;2.90;;
11887;SDS011;6003;42.756;23.130;2022-08-25T07:18:58;2.93;;;2.67;;
11887;SDS011;6003;42.756;23.130;2022-08-25T07:21:26;4.33;;;3.13;;
11887;SDS011;6003;42.756;23.130;2022-08-25T07:23:56;3.45;;;3.15;;
11887;SDS011;6003;42.756;23.130;2022-08-25T07:26:25;2.97;;;2.70;;
11887;SDS011;6003;42.756;23.130;2022-08-25T07:28:54;3.40;;;2.90;;
11887;SDS011;6003;42.756;23.130;2022-08-25T07:31:22;3.77;;;3.47;;
11887;SDS011;6003;42.756;23.130;2022-08-25T07:33:50;3.47;;;3.17;;
11887;SDS011;6003;42.756;23.130;2022-08-25T07:36:34;3.63;;;3.30;;
11887;SDS011;6003;42.756;23.130;2022-08-25T07:39:03;3.83;;;3.43;;
11887;SDS011;6003;42.756;23.130;2022-08-25T07:41:30;7.30;;;3.30;;
11887;SDS011;6003;42.756;23.130;2022-08-25T07:43:58;3.50;;;3.10;;
11887;SDS011;6003;42.756;23.130;2022-08-25T07:46:26;4.37;;;3.23;;
11887;SDS011;6003;42.756;23.130;2022-08-25T07:48:53;3.83;;;3.53;;
11887;SDS011;6003;42.756;23.130;2022-08-25T07:51:20;3.37;;;3.03;;
11887;SDS011;6003;42.756;23.130;2022-08-25T07:53:47;4.27;;;3.30;;
11887;SDS011;6003;42.756;23.130;2022-08-25T07:56:16;4.17;;;3.17;;
11887;SDS011;6003;42.756;23.130;2022-08-25T07:58:43;5.50;;;3.20;;
11887;SDS011;6003;42.756;23.130;2022-08-25T08:01:12;5.57;;;3.67;;
11887;SDS011;6003;42.756;23.130;2022-08-25T08:03:40;3.50;;;3.23;;
11887;SDS011;6003;42.756;23.130;2022-08-25T08:06:08;4.13;;;3.23;;
11887;SDS011;6003;42.756;23.130;2022-08-25T08:08:36;3.97;;;3.67;;
11887;SDS011;6003;42.756;23.130;2022-08-25T08:11:04;3.57;;;3.27;;
11887;SDS011;6003;42.756;23.130;2022-08-25T08:13:33;5.80;;;3.57;;
11887;SDS011;6003;42.756;23.130;2022-08-25T08:16:00;5.00;;;3.60;;
11887;SDS011;6003;42.756;23.130;2022-08-25T08:18:27;3.80;;;3.37;;
11887;SDS011;6003;42.756;23.130;2022-08-25T08:20:54;8.03;;;2.90;;
11887;SDS011;6003;42.756;23.130;2022-08-25T08:23:21;4.57;;;3.33;;
11887;SDS011;6003;42.756;23.130;2022-08-25T08:25:51;3.20;;;2.87;;
11887;SDS011;6003;42.756;23.130;2022-08-25T08:28:19;3.43;;;3.13;;
11887;SDS011;6003;42.756;23.130;2022-08-25T08:30:48;3.23;;;3.03;;
11887;SDS011;6003;42.756;23.130;2022-08-25T08:33:15;3.13;;;2.90;;
11887;SDS011;6003;42.756;23.130;2022-08-25T08:35:41;4.83;;;2.97;;
11887;SDS011;6003;42.756;23.130;2022-08-25T08:38:08;3.65;;;3.35;;
11887;SDS011;6003;42.756;23.130;2022-08-25T08:40:39;5.32;;;3.33;;
11887;SDS011;6003;42.756;23.130;2022-08-25T08:43:33;3.57;;;3.27;;
11887;SDS011;6003;42.756;23.130;2022-08-25T08:46:02;5.27;;;3.40;;
11887;SDS011;6003;42.756;23.130;2022-08-25T08:48:39;2.58;;;2.35;;
11887;SDS011;6003;42.756;23.130;2022-08-25T08:51:16;3.15;;;2.95;;
11887;SDS011;6003;42.756;23.130;2022-08-25T08:53:51;2.92;;;2.65;;
11887;SDS011;6003;42.756;23.130;2022-08-25T08:56:22;3.15;;;2.42;;
11887;SDS011;6003;42.756;23.130;2022-08-25T08:58:53;1.95;;;1.85;;
11887;SDS011;6003;42.756;23.130;2022-08-25T09:01:25;3.53;;;1.52;;
11887;SDS011;6003;42.756;23.130;2022-08-25T09:03:57;1.83;;;1.65;;
11887;SDS011;6003;42.756;23.130;2022-08-25T09:06:30;1.77;;;1.63;;
11887;SDS011;6003;42.756;23.130;2022-08-25T09:09:03;4.40;;;1.48;;
11887;SDS011;6003;42.756;23.130;2022-08-25T09:11:42;1.95;;;1.80;;
11887;SDS011;6003;42.756;23.130;2022-08-25T09:14:24;4.05;;;1.83;;
11887;SDS011;6003;42.756;23.130;2022-08-25T09:17:08;3.13;;;1.60;;
11887;SDS011;6003;42.756;23.130;2022-08-25T09:19:46;2.38;;;1.70;;
11887;SDS011;6003;42.756;23.130;2022-08-25T09:22:31;1.77;;;1.60;;
11887;SDS011;6003;42.756;23.130;2022-08-25T09:25:10;2.60;;;1.70;;
11887;SDS011;6003;42.756;23.130;2022-08-25T09:27:44;4.28;;;1.60;;
11887;SDS011;6003;42.756;23.130;2022-08-25T09:30:15;1.85;;;1.75;;
11887;SDS011;6003;42.756;23.130;2022-08-25T09:32:45;4.03;;;1.30;;
11887;SDS011;6003;42.756;23.130;2022-08-25T09:35:16;3.08;;;1.73;;
11887;SDS011;6003;42.756;23.130;2022-08-25T09:37:56;4.43;;;1.70;;
11887;SDS011;6003;42.756;23.130;2022-08-25T09:40:24;3.72;;;1.70;;
11887;SDS011;6003;42.756;23.130;2022-08-25T09:42:52;3.38;;;2.15;;
11887;SDS011;6003;42.756;23.130;2022-08-25T09:45:36;3.35;;;1.83;;
11887;SDS011;6003;42.756;23.130;2022-08-25T09:48:22;5.13;;;1.90;;
11887;SDS011;6003;42.756;23.130;2022-08-25T09:50:52;2.92;;;1.67;;
11887;SDS011;6003;42.756;23.130;2022-08-25T09:53:23;1.98;;;1.58;;
11887;SDS011;6003;42.756;23.130;2022-08-25T09:55:55;2.38;;;1.63;;
11887;SDS011;6003;42.756;23.130;2022-08-25T09:58:28;1.83;;;1.67;;
11887;SDS011;6003;42.756;23.130;2022-08-25T10:01:12;1.65;;;1.35;;
11887;SDS011;6003;42.756;23.130;2022-08-25T10:03:53;4.22;;;1.67;;
11887;SDS011;6003;42.756;23.130;2022-08-25T10:06:23;1.60;;;1.50;;
11887;SDS011;6003;42.756;23.130;2022-08-25T10:08:54;1.60;;;1.50;;
11887;SDS011;6003;42.756;23.130;2022-08-25T10:11:31;1.95;;;1.48;;
11887;SDS011;6003;42.756;23.130;2022-08-25T10:14:04;2.10;;;1.42;;
11887;SDS011;6003;42.756;23.130;2022-08-25T10:16:40;4.28;;;1.77;;
11887;SDS011;6003;42.756;23.130;2022-08-25T10:19:10;3.08;;;2.25;;
11887;SDS011;6003;42.756;23.130;2022-08-25T10:21:40;1.52;;;1.20;;
11887;SDS011;6003;42.756;23.130;2022-08-25T10:24:08;2.17;;;1.40;;
11887;SDS011;6003;42.756;23.130;2022-08-25T10:26:46;1.73;;;1.10;;
11887;SDS011;6003;42.756;23.130;2022-08-25T10:29:25;1.55;;;1.45;;
11887;SDS011;6003;42.756;23.130;2022-08-25T10:32:03;1.50;;;1.40;;
11887;SDS011;6003;42.756;23.130;2022-08-25T10:34:40;3.75;;;2.20;;
11887;SDS011;6003;42.756;23.130;2022-08-25T10:37:15;1.40;;;1.30;;
11887;SDS011;6003;42.756;23.130;2022-08-25T10:39:52;5.95;;;1.40;;
11887;SDS011;6003;42.756;23.130;2022-08-25T10:42:29;1.80;;;1.70;;
11887;SDS011;6003;42.756;23.130;2022-08-25T10:48:07;2.30;;;2.10;;
11887;SDS011;6003;42.756;23.130;2022-08-25T10:51:04;2.67;;;1.30;;
11887;SDS011;6003;42.756;23.130;2022-08-25T10:53:43;1.88;;;1.73;;
11887;SDS011;6003;42.756;23.130;2022-08-25T10:56:22;2.08;;;1.88;;
11887;SDS011;6003;42.756;23.130;2022-08-25T10:58:58;3.45;;;1.60;;
11887;SDS011;6003;42.756;23.130;2022-08-25T11:01:43;2.25;;;1.77;;
11887;SDS011;6003;42.756;23.130;2022-08-25T11:04:22;1.85;;;1.75;;
11887;SDS011;6003;42.756;23.130;2022-08-25T11:06:55;2.33;;;1.85;;
11887;SDS011;6003;42.756;23.130;2022-08-25T11:09:27;2.28;;;1.92;;
11887;SDS011;6003;42.756;23.130;2022-08-25T11:11:58;1.73;;;1.63;;
11887;SDS011;6003;42.756;23.130;2022-08-25T11:14:31;1.83;;;1.73;;
11887;SDS011;6003;42.756;23.130;2022-08-25T11:17:03;1.88;;;1.77;;
11887;SDS011;6003;42.756;23.130;2022-08-25T11:19:34;1.90;;;1.80;;
11887;SDS011;6003;42.756;23.130;2022-08-25T11:22:09;1.70;;;1.60;;
11887;SDS011;6003;42.756;23.130;2022-08-25T11:24:46;2.92;;;2.72;;
11887;SDS011;6003;42.756;23.130;2022-08-25T11:27:27;3.17;;;1.77;;
11887;SDS011;6003;42.756;23.130;2022-08-25T11:30:03;2.17;;;1.98;;
11887;SDS011;6003;42.756;23.130;2022-08-25T11:32:32;2.20;;;1.60;;
11887;SDS011;6003;42.756;23.130;2022-08-25T11:35:00;3.22;;;1.60;;
11887;SDS011;6003;42.756;23.130;2022-08-25T11:37:30;1.90;;;1.70;;
11887;SDS011;6003;42.756;23.130;2022-08-25T11:42:55;1.90;;;1.80;;
11887;SDS011;6003;42.756;23.130;2022-08-25T11:45:41;1.88;;;1.77;;
11887;SDS011;6003;42.756;23.130;2022-08-25T11:48:21;2.03;;;1.88;;
11887;SDS011;6003;42.756;23.130;2022-08-25T11:50:57;1.92;;;1.83;;
11887;SDS011;6003;42.756;23.130;2022-08-25T11:53:29;1.70;;;1.65;;
11887;SDS011;6003;42.756;23.130;2022-08-25T11:55:57;2.42;;;1.83;;
11887;SDS011;6003;42.756;23.130;2022-08-25T12:04:34;1.63;;;1.52;;
11887;SDS011;6003;42.756;23.130;2022-08-25T12:07:24;3.35;;;1.48;;
11887;SDS011;6003;42.756;23.130;2022-08-25T12:13:01;4.32;;;1.42;;
11887;SDS011;6003;42.756;23.130;2022-08-25T12:18:42;4.60;;;2.03;;
11887;SDS011;6003;42.756;23.130;2022-08-25T12:21:12;3.47;;;1.35;;
11887;SDS011;6003;42.756;23.130;2022-08-25T12:24:08;2.55;;;1.98;;
11887;SDS011;6003;42.756;23.130;2022-08-25T12:26:41;1.70;;;1.60;;
11887;SDS011;6003;42.756;23.130;2022-08-25T12:29:16;1.48;;;1.30;;
11887;SDS011;6003;42.756;23.130;2022-08-25T12:31:57;1.60;;;1.50;;
11887;SDS011;6003;42.756;23.130;2022-08-25T12:34:41;1.92;;;1.60;;
11887;SDS011;6003;42.756;23.130;2022-08-25T12:37:20;5.80;;;1.80;;
11887;SDS011;6003;42.756;23.130;2022-08-25T12:39:54;1.98;;;1.88;;
11887;SDS011;6003;42.756;23.130;2022-08-25T12:42:27;5.03;;;1.63;;
11887;SDS011;6003;42.756;23.130;2022-08-25T12:45:09;1.55;;;1.35;;
11887;SDS011;6003;42.756;23.130;2022-08-25T12:47:39;3.00;;;1.55;;
11887;SDS011;6003;42.756;23.130;2022-08-25T12:50:28;2.40;;;1.67;;
11887;SDS011;6003;42.756;23.130;2022-08-25T12:53:05;2.85;;;1.73;;
11887;SDS011;6003;42.756;23.130;2022-08-25T12:55:37;1.90;;;1.70;;
11887;SDS011;6003;42.756;23.130;2022-08-25T12:58:07;2.10;;;1.77;;
11887;SDS011;6003;42.756;23.130;2022-08-25T13:00:36;2.75;;;1.50;;
11887;SDS011;6003;42.756;23.130;2022-08-25T13:03:25;2.58;;;1.60;;
11887;SDS011;6003;42.756;23.130;2022-08-25T13:09:21;1.80;;;1.58;;
11887;SDS011;6003;42.756;23.130;2022-08-25T13:12:12;2.75;;;1.55;;
11887;SDS011;6003;42.756;23.130;2022-08-25T13:14:44;1.98;;;1.40;;
11887;SDS011;6003;42.756;23.130;2022-08-25T13:17:24;3.65;;;1.88;;
11887;SDS011;6003;42.756;23.130;2022-08-25T13:22:42;3.65;;;1.83;;
11887;SDS011;6003;42.756;23.130;2022-08-25T13:25:15;2.03;;;1.73;;
11887;SDS011;6003;42.756;23.130;2022-08-25T13:27:47;6.25;;;1.70;;
11887;SDS011;6003;42.756;23.130;2022-08-25T13:30:22;3.95;;;1.48;;
11887;SDS011;6003;42.756;23.130;2022-08-25T13:32:52;3.83;;;1.50;;
11887;SDS011;6003;42.756;23.130;2022-08-25T13:35:21;4.07;;;1.80;;
11887;SDS011;6003;42.756;23.130;2022-08-25T13:40:40;3.50;;;2.60;;
11887;SDS011;6003;42.756;23.130;2022-08-25T13:43:08;1.70;;;1.60;;
11887;SDS011;6003;42.756;23.130;2022-08-25T13:45:37;1.95;;;1.75;;
11887;SDS011;6003;42.756;23.130;2022-08-25T13:48:07;1.52;;;1.42;;
11887;SDS011;6003;42.756;23.130;2022-08-25T13:50:35;2.45;;;1.75;;
11887;SDS011;6003;42.756;23.130;2022-08-25T13:53:05;1.75;;;1.65;;
11887;SDS011;6003;42.756;23.130;2022-08-25T13:55:37;1.83;;;1.35;;
11887;SDS011;6003;42.756;23.130;2022-08-25T14:01:05;3.65;;;1.70;;
11887;SDS011;6003;42.756;23.130;2022-08-25T14:03:37;1.85;;;1.73;;
11887;SDS011;6003;42.756;23.130;2022-08-25T14:06:08;1.60;;;1.50;;
11887;SDS011;6003;42.756;23.130;2022-08-25T14:08:37;1.92;;;1.55;;
11887;SDS011;6003;42.756;23.130;2022-08-25T14:11:06;1.70;;;1.58;;
11887;SDS011;6003;42.756;23.130;2022-08-25T14:13:35;4.35;;;1.70;;
11887;SDS011;6003;42.756;23.130;2022-08-25T14:16:07;1.83;;;1.70;;
11887;SDS011;6003;42.756;23.130;2022-08-25T14:21:40;2.15;;;1.35;;
11887;SDS011;6003;42.756;23.130;2022-08-25T14:24:07;2.95;;;1.70;;
11887;SDS011;6003;42.756;23.130;2022-08-25T14:26:35;5.55;;;2.10;;
11887;SDS011;6003;42.756;23.130;2022-08-25T14:29:02;1.55;;;1.45;;
11887;SDS011;6003;42.756;23.130;2022-08-25T14:31:30;3.92;;;2.10;;
11887;SDS011;6003;42.756;23.130;2022-08-25T14:34:00;2.17;;;1.58;;
11887;SDS011;6003;42.756;23.130;2022-08-25T14:36:32;2.92;;;1.90;;
11887;SDS011;6003;42.756;23.130;2022-08-25T14:39:00;2.77;;;1.50;;
11887;SDS011;6003;42.756;23.130;2022-08-25T14:41:30;2.30;;;2.10;;
11887;SDS011;6003;42.756;23.130;2022-08-25T14:43:58;2.13;;;1.67;;
11887;SDS011;6003;42.756;23.130;2022-08-25T14:46:26;4.90;;;2.23;;
11887;SDS011;6003;42.756;23.130;2022-08-25T14:48:56;2.87;;;1.60;;
11887;SDS011;6003;42.756;23.130;2022-08-25T14:51:25;5.60;;;1.87;;
11887;SDS011;6003;42.756;23.130;2022-08-25T14:53:56;1.63;;;1.53;;
11887;SDS011;6003;42.756;23.130;2022-08-25T14:56:26;4.93;;;1.83;;
11887;SDS011;6003;42.756;23.130;2022-08-25T14:58:53;2.03;;;1.67;;
11887;SDS011;6003;42.756;23.130;2022-08-25T15:01:21;2.28;;;1.70;;
11887;SDS011;6003;42.756;23.130;2022-08-25T15:03:49;1.67;;;1.58;;
11887;SDS011;6003;42.756;23.130;2022-08-25T15:06:19;1.65;;;1.45;;
11887;SDS011;6003;42.756;23.130;2022-08-25T15:08:46;2.70;;;1.50;;
11887;SDS011;6003;42.756;23.130;2022-08-25T15:11:31;2.33;;;1.50;;
11887;SDS011;6003;42.756;23.130;2022-08-25T15:13:59;2.80;;;1.58;;
11887;SDS011;6003;42.756;23.130;2022-08-25T15:16:27;5.07;;;1.70;;
11887;SDS011;6003;42.756;23.130;2022-08-25T15:18:56;3.27;;;1.43;;
11887;SDS011;6003;42.756;23.130;2022-08-25T15:21:24;1.80;;;1.70;;
11887;SDS011;6003;42.756;23.130;2022-08-25T15:23:51;3.60;;;1.63;;
11887;SDS011;6003;42.756;23.130;2022-08-25T15:26:18;2.07;;;1.63;;
11887;SDS011;6003;42.756;23.130;2022-08-25T15:28:47;5.77;;;2.13;;
11887;SDS011;6003;42.756;23.130;2022-08-25T15:31:16;3.63;;;1.70;;
11887;SDS011;6003;42.756;23.130;2022-08-25T15:33:45;1.47;;;1.37;;
11887;SDS011;6003;42.756;23.130;2022-08-25T15:36:13;3.50;;;1.53;;
11887;SDS011;6003;42.756;23.130;2022-08-25T15:38:42;1.90;;;1.70;;
11887;SDS011;6003;42.756;23.130;2022-08-25T15:41:10;2.10;;;1.70;;
11887;SDS011;6003;42.756;23.130;2022-08-25T15:43:37;1.67;;;1.47;;
11887;SDS011;6003;42.756;23.130;2022-08-25T15:46:05;2.27;;;1.70;;
11887;SDS011;6003;42.756;23.130;2022-08-25T15:48:33;2.73;;;1.70;;
11887;SDS011;6003;42.756;23.130;2022-08-25T15:51:00;1.77;;;1.67;;
11887;SDS011;6003;42.756;23.130;2022-08-25T15:53:29;6.83;;;2.00;;
11887;SDS011;6003;42.756;23.130;2022-08-25T15:55:56;1.87;;;1.70;;
11887;SDS011;6003;42.756;23.130;2022-08-25T15:58:23;1.73;;;1.50;;
11887;SDS011;6003;42.756;23.130;2022-08-25T16:00:50;1.67;;;1.57;;
11887;SDS011;6003;42.756;23.130;2022-08-25T16:03:18;1.53;;;1.47;;
11887;SDS011;6003;42.756;23.130;2022-08-25T16:05:45;2.50;;;1.63;;
11887;SDS011;6003;42.756;23.130;2022-08-25T16:08:12;2.77;;;1.97;;
11887;SDS011;6003;42.756;23.130;2022-08-25T16:10:40;2.63;;;1.67;;
11887;SDS011;6003;42.756;23.130;2022-08-25T16:13:08;1.80;;;1.70;;
11887;SDS011;6003;42.756;23.130;2022-08-25T16:15:36;3.80;;;2.07;;
11887;SDS011;6003;42.756;23.130;2022-08-25T16:18:04;2.23;;;1.53;;